createdAt,value
2022-10-23T00:00:08.699Z,99652.19
2022-10-23T00:03:10.882Z,99638.47
2022-10-23T00:06:14.245Z,99642.91
2022-10-23T00:09:19.405Z,99647.78
2022-10-23T00:12:21.551Z,99654.50
2022-10-23T00:15:23.905Z,99653.91
2022-10-23T00:18:26.259Z,99652.56
2022-10-23T00:21:28.582Z,99646.00
2022-10-23T00:24:30.752Z,99647.66
2022-10-23T00:27:32.955Z,99651.03
2022-10-23T00:30:35.097Z,99658.59
2022-10-23T00:33:37.517Z,99652.84
2022-10-23T00:36:39.660Z,99668.03
2022-10-23T00:39:41.961Z,99661.88
2022-10-23T00:42:44.382Z,99674.78
2022-10-23T00:45:47.206Z,99667.78
2022-10-23T00:48:49.819Z,99668.16
2022-10-23T00:51:54.333Z,99666.31
2022-10-23T00:54:56.972Z,99670.88
2022-10-23T00:57:59.481Z,99657.72
2022-10-23T01:01:01.695Z,99669.22
2022-10-23T01:04:05.946Z,99671.41
2022-10-23T01:07:29.890Z,99668.69
2022-10-23T01:10:50.298Z,99680.37
2022-10-23T01:14:13.189Z,99687.00
2022-10-23T01:17:25.972Z,99696.53
2022-10-23T01:20:55.717Z,99699.72
2022-10-23T01:24:09.158Z,99693.28
2022-10-23T01:27:35.577Z,99708.81
2022-10-23T01:33:53.128Z,99711.75
2022-10-23T01:36:57.340Z,99709.66
2022-10-23T01:40:02.883Z,99711.22
2022-10-23T01:43:08.393Z,99718.59
2022-10-23T01:46:14.328Z,99721.00
2022-10-23T01:49:17.399Z,99717.22
2022-10-23T01:52:20.152Z,99722.97
2022-10-23T01:55:23.435Z,99726.13
2022-10-23T01:58:26.818Z,99720.16
2022-10-23T02:01:30.734Z,99723.31
2022-10-23T02:04:40.302Z,99724.09
2022-10-23T02:07:42.934Z,99721.72
2022-10-23T02:10:52.926Z,99727.56
2022-10-23T02:14:03.637Z,99722.62
2022-10-23T02:17:21.830Z,99724.16
2022-10-23T02:20:26.204Z,99722.66
2022-10-23T02:23:36.099Z,99727.13
2022-10-23T02:26:40.756Z,99721.63
2022-10-23T02:29:48.841Z,99719.50
2022-10-23T02:32:53.720Z,99719.44
2022-10-23T02:35:56.186Z,99720.19
2022-10-23T02:38:58.583Z,99713.94
2022-10-23T02:42:00.638Z,99709.63
2022-10-23T02:45:21.240Z,99720.41
2022-10-23T02:48:31.995Z,99720.25
2022-10-23T02:51:46.352Z,99724.34
2022-10-23T02:55:06.940Z,99721.72
2022-10-23T02:58:17.982Z,99727.59
2022-10-23T03:01:23.671Z,99730.00
2022-10-23T03:04:27.281Z,99743.63
2022-10-23T03:07:29.664Z,99739.47
2022-10-23T03:10:31.875Z,99741.81
2022-10-23T03:13:34.021Z,99739.03
2022-10-23T03:16:36.156Z,99744.19
2022-10-23T03:19:38.299Z,99749.56
2022-10-23T03:22:40.708Z,99751.19
2022-10-23T03:25:43.044Z,99749.44
2022-10-23T03:28:45.185Z,99749.81
2022-10-23T03:31:47.289Z,99754.94
2022-10-23T03:34:49.488Z,99758.50
2022-10-23T03:37:51.646Z,99753.88
2022-10-23T03:40:53.865Z,99763.00
2022-10-23T03:43:56.071Z,99756.84
2022-10-23T03:46:58.287Z,99759.53
2022-10-23T03:50:00.419Z,99757.09
2022-10-23T03:53:02.539Z,99758.91
2022-10-23T03:56:05.058Z,99767.66
2022-10-23T03:59:07.199Z,99769.56
2022-10-23T04:02:09.496Z,99775.91
2022-10-23T04:05:11.998Z,99784.03
2022-10-23T04:08:17.695Z,99781.03
2022-10-23T04:11:22.338Z,99781.84
2022-10-23T04:14:24.474Z,99782.19
2022-10-23T04:20:33.619Z,99786.59
2022-10-23T04:23:35.786Z,99791.59
2022-10-23T04:26:37.896Z,99793.91
2022-10-23T04:29:40.013Z,99789.44
2022-10-23T04:32:42.331Z,99779.87
2022-10-23T04:35:44.556Z,99777.78
2022-10-23T04:38:47.890Z,99776.97
2022-10-23T04:41:50.054Z,99767.41
2022-10-23T04:44:52.182Z,99764.06
2022-10-23T04:47:54.352Z,99769.03
2022-10-23T04:51:01.501Z,99766.91
2022-10-23T04:54:03.934Z,99756.66
2022-10-23T04:57:06.098Z,99762.75
2022-10-23T05:00:10.766Z,99761.91
2022-10-23T05:03:13.654Z,99768.69
2022-10-23T05:06:15.825Z,99771.34
2022-10-23T05:09:17.986Z,99764.06
2022-10-23T05:12:20.814Z,99780.03
2022-10-23T05:15:23.035Z,99775.94
2022-10-23T05:18:44.610Z,99766.00
2022-10-23T05:21:48.167Z,99769.34
2022-10-23T05:24:50.772Z,99776.75
2022-10-23T05:27:53.094Z,99784.69
2022-10-23T05:30:55.816Z,99782.38
2022-10-23T05:33:58.048Z,99788.13
2022-10-23T05:37:01.309Z,99785.66
2022-10-23T05:40:03.828Z,99794.56
2022-10-23T05:43:06.017Z,99796.38
2022-10-23T05:46:08.144Z,99797.22
2022-10-23T05:49:10.363Z,99793.09
2022-10-23T05:52:13.126Z,99795.91
2022-10-23T05:55:16.202Z,99794.72
2022-10-23T05:58:18.340Z,99796.53
2022-10-23T06:01:20.629Z,99802.78
2022-10-23T06:04:22.829Z,99805.72
2022-10-23T06:07:26.428Z,99811.97
2022-10-23T06:10:28.677Z,99806.97
2022-10-23T06:13:30.832Z,99812.75
2022-10-23T06:16:33.295Z,99820.41
2022-10-23T06:19:35.458Z,99825.16
2022-10-23T06:22:37.654Z,99836.50
2022-10-23T06:25:39.795Z,99834.37
2022-10-23T06:28:42.374Z,99823.28
2022-10-23T06:31:44.517Z,99825.28
2022-10-23T06:34:46.652Z,99832.13
2022-10-23T06:37:48.841Z,99831.00
2022-10-23T06:40:55.521Z,99835.22
2022-10-23T06:43:57.711Z,99838.00
2022-10-23T06:47:02.005Z,99839.50
2022-10-23T06:50:04.490Z,99838.41
2022-10-23T06:53:06.959Z,99842.09
2022-10-23T06:56:09.483Z,99842.53
2022-10-23T06:59:11.680Z,99853.09
2022-10-23T07:02:13.860Z,99852.25
2022-10-23T07:05:16.114Z,99855.84
2022-10-23T07:08:18.339Z,99854.75
2022-10-23T07:11:20.578Z,99862.16
2022-10-23T07:14:22.776Z,99861.66
2022-10-23T07:17:24.951Z,99867.88
2022-10-23T07:20:27.211Z,99863.87
2022-10-23T07:23:29.393Z,99863.91
2022-10-23T07:26:32.947Z,99872.84
2022-10-23T07:29:35.126Z,99878.16
2022-10-23T07:32:37.297Z,99878.47
2022-10-23T07:35:40.992Z,99877.03
2022-10-23T07:38:43.236Z,99878.28
2022-10-23T07:41:45.400Z,99879.72
2022-10-23T07:44:47.526Z,99874.44
2022-10-23T07:47:52.586Z,99870.94
2022-10-23T07:51:00.834Z,99865.84
2022-10-23T07:54:03.137Z,99864.22
2022-10-23T07:57:07.362Z,99865.25
2022-10-23T08:00:11.376Z,99863.00
2022-10-23T08:03:13.599Z,99859.69
2022-10-23T08:06:15.813Z,99870.53
2022-10-23T08:09:18.042Z,99875.50
2022-10-23T08:12:20.186Z,99873.66
2022-10-23T08:15:22.304Z,99878.53
2022-10-23T08:18:24.540Z,99884.50
2022-10-23T08:21:27.280Z,99881.44
2022-10-23T08:24:29.920Z,99872.41
2022-10-23T08:27:32.072Z,99868.53
2022-10-23T08:30:34.297Z,99867.53
2022-10-23T08:33:36.928Z,99873.25
2022-10-23T08:36:39.387Z,99882.28
2022-10-23T08:39:41.674Z,99872.66
2022-10-23T08:42:48.835Z,99870.34
2022-10-23T08:45:54.004Z,99872.16
2022-10-23T08:49:03.386Z,99873.63
2022-10-23T08:52:34.587Z,99882.62
2022-10-23T08:55:40.855Z,99889.31
2022-10-23T08:58:50.734Z,99880.16
2022-10-23T09:02:01.240Z,99876.44
2022-10-23T09:05:03.977Z,99871.78
2022-10-23T09:08:29.212Z,99869.44
2022-10-23T09:11:51.834Z,99868.84
2022-10-23T09:15:30.592Z,99866.81
2022-10-23T09:18:32.839Z,99871.75
2022-10-23T09:21:36.132Z,99872.97
2022-10-23T09:24:38.385Z,99876.59
2022-10-23T09:27:48.637Z,99882.06
2022-10-23T09:30:53.141Z,99876.69
2022-10-23T09:34:00.937Z,99874.69
2022-10-23T09:37:17.535Z,99884.28
2022-10-23T09:40:33.983Z,99877.69
2022-10-23T09:43:36.190Z,99876.63
2022-10-23T09:46:42.394Z,99878.44
2022-10-23T09:49:49.991Z,99871.06
2022-10-23T09:52:54.470Z,99872.91
2022-10-23T09:55:59.275Z,99877.66
2022-10-23T09:59:17.910Z,99872.63
2022-10-23T10:02:43.319Z,99869.72
2022-10-23T10:05:57.206Z,99881.06
2022-10-23T10:09:05.831Z,99878.31
2022-10-23T10:12:17.033Z,99877.84
2022-10-23T10:15:25.016Z,99874.94
2022-10-23T10:18:41.308Z,99878.22
2022-10-23T10:22:01.341Z,99869.72
2022-10-23T10:25:20.038Z,99867.53
2022-10-23T10:28:50.116Z,99865.59
2022-10-23T10:32:22.441Z,99861.41
2022-10-23T10:35:46.173Z,99857.75
2022-10-23T10:39:11.210Z,99850.19
2022-10-23T10:42:19.757Z,99841.75
2022-10-23T10:45:32.975Z,99838.47
2022-10-23T10:48:47.358Z,99831.50
2022-10-23T10:52:27.378Z,99827.75
2022-10-23T10:55:41.396Z,99822.31
2022-10-23T10:58:43.466Z,99820.41
2022-10-23T11:01:51.677Z,99816.47
2022-10-23T11:05:18.810Z,99816.47
2022-10-23T11:08:44.551Z,99814.12
2022-10-23T11:11:58.022Z,99812.56
2022-10-23T11:15:00.206Z,99808.81
2022-10-23T11:18:06.121Z,99809.66
2022-10-23T11:21:27.129Z,99802.53
2022-10-23T11:25:03.467Z,99795.09
2022-10-23T11:28:46.216Z,99800.63
2022-10-23T11:32:23.691Z,99782.09
2022-10-23T11:35:41.747Z,99784.12
2022-10-23T11:38:46.886Z,99782.88
2022-10-23T11:42:00.596Z,99785.31
2022-10-23T11:45:02.780Z,99784.38
2022-10-23T11:48:13.953Z,99783.69
2022-10-23T11:51:42.201Z,99770.94
2022-10-23T11:54:44.316Z,99775.16
2022-10-23T11:58:04.805Z,99776.09
2022-10-23T12:01:43.858Z,99779.09
2022-10-23T12:04:51.402Z,99776.06
2022-10-23T12:07:59.482Z,99769.09
2022-10-23T12:11:01.699Z,99772.34
2022-10-23T12:14:03.891Z,99767.69
2022-10-23T12:17:24.738Z,99764.06
2022-10-23T12:20:50.413Z,99761.72
2022-10-23T12:24:23.258Z,99757.37
2022-10-23T12:27:32.220Z,99750.97
2022-10-23T12:30:56.619Z,99755.09
2022-10-23T12:34:17.018Z,99760.91
2022-10-23T12:37:55.131Z,99741.53
2022-10-23T12:41:13.986Z,99748.75
2022-10-23T12:44:16.258Z,99734.03
2022-10-23T12:47:19.168Z,99732.41
2022-10-23T12:50:26.773Z,99730.41
2022-10-23T12:53:29.088Z,99727.84
2022-10-23T12:56:35.959Z,99723.69
2022-10-23T12:59:39.305Z,99712.94
2022-10-23T13:02:41.822Z,99714.91
2022-10-23T13:05:44.276Z,99716.44
2022-10-23T13:08:47.934Z,99709.16
2022-10-23T13:11:51.874Z,99711.84
2022-10-23T13:15:15.467Z,99711.72
2022-10-23T13:18:18.117Z,99707.97
2022-10-23T13:21:22.831Z,99703.81
2022-10-23T13:24:27.097Z,99704.19
2022-10-23T13:27:35.371Z,99705.97
2022-10-23T13:30:42.704Z,99703.63
2022-10-23T13:33:47.181Z,99691.00
2022-10-23T13:37:01.295Z,99687.13
2022-10-23T13:40:05.263Z,99683.19
2022-10-23T13:43:13.947Z,99675.50
2022-10-23T13:46:21.721Z,99679.69
2022-10-23T13:49:24.136Z,99683.53
2022-10-23T13:52:26.400Z,99676.53
2022-10-23T13:55:28.926Z,99679.41
2022-10-23T13:58:31.113Z,99675.91
2022-10-23T14:01:35.911Z,99670.47
2022-10-23T14:04:38.128Z,99663.34
2022-10-23T14:07:40.673Z,99658.81
2022-10-23T14:10:42.997Z,99658.78
2022-10-23T14:13:45.845Z,99660.56
2022-10-23T14:16:47.985Z,99661.56
2022-10-23T14:19:50.286Z,99655.06
2022-10-23T14:22:52.571Z,99659.75
2022-10-23T14:25:54.722Z,99661.56
2022-10-23T14:28:59.563Z,99656.44
2022-10-23T14:32:05.370Z,99649.47
2022-10-23T14:35:07.828Z,99650.63
2022-10-23T14:38:10.889Z,99646.88
2022-10-23T14:41:15.500Z,99641.28
2022-10-23T14:44:17.833Z,99636.63
2022-10-23T14:47:20.597Z,99636.06
2022-10-23T14:50:22.992Z,99631.50
2022-10-23T14:53:27.474Z,99637.19
2022-10-23T14:56:32.410Z,99628.34
2022-10-23T14:59:34.550Z,99621.22
2022-10-23T15:02:36.994Z,99621.44
2022-10-23T15:05:41.799Z,99618.53
2022-10-23T15:08:43.931Z,99620.84
2022-10-23T15:11:46.851Z,99612.47
2022-10-23T15:14:49.151Z,99614.09
2022-10-23T15:17:51.278Z,99614.34
2022-10-23T15:20:54.073Z,99610.84
2022-10-23T15:23:56.202Z,99613.88
2022-10-23T15:27:00.050Z,99597.78
2022-10-23T15:30:02.449Z,99591.50
2022-10-23T15:33:05.474Z,99589.97
2022-10-23T15:36:08.102Z,99588.59
2022-10-23T15:39:10.942Z,99584.84
2022-10-23T15:42:13.707Z,99584.75
2022-10-23T15:45:17.645Z,99584.63
2022-10-23T15:48:20.055Z,99588.13
2022-10-23T15:51:23.321Z,99596.37
2022-10-23T15:54:28.176Z,99601.16
2022-10-23T15:57:32.866Z,99605.13
2022-10-23T16:00:36.724Z,99598.19
2022-10-23T16:03:39.306Z,99605.63
2022-10-23T16:06:42.177Z,99602.38
2022-10-23T16:09:44.306Z,99603.06
2022-10-23T16:12:46.786Z,99604.78
2022-10-23T16:15:49.085Z,99605.16
2022-10-23T16:18:51.618Z,99614.47
2022-10-23T16:21:53.936Z,99625.19
2022-10-23T16:24:56.322Z,99628.91
2022-10-23T16:27:59.105Z,99635.87
2022-10-23T16:31:01.486Z,99635.66
2022-10-23T16:34:05.422Z,99650.09
2022-10-23T16:37:07.671Z,99639.88
2022-10-23T16:40:10.454Z,99638.09
2022-10-23T16:43:12.565Z,99648.50
2022-10-23T16:46:18.009Z,99648.59
2022-10-23T16:49:20.410Z,99649.19
2022-10-23T16:52:22.646Z,99663.16
2022-10-23T16:55:25.018Z,99665.84
2022-10-23T16:58:28.465Z,99660.25
2022-10-23T17:01:32.211Z,99652.53
2022-10-23T17:04:36.253Z,99653.50
2022-10-23T17:07:38.637Z,99648.00
2022-10-23T17:10:41.033Z,99637.31
2022-10-23T17:13:46.467Z,99645.47
2022-10-23T17:16:51.486Z,99667.34
2022-10-23T17:19:53.880Z,99667.25
2022-10-23T17:22:56.581Z,99660.34
2022-10-23T17:25:59.620Z,99661.53
2022-10-23T17:29:07.002Z,99658.81
2022-10-23T17:32:09.422Z,99650.56
2022-10-23T17:35:12.006Z,99653.91
2022-10-23T17:38:19.079Z,99648.41
2022-10-23T17:41:23.517Z,99654.28
2022-10-23T17:44:26.119Z,99649.75
2022-10-23T17:47:28.438Z,99638.78
2022-10-23T17:50:30.813Z,99632.53
2022-10-23T17:53:34.771Z,99637.88
2022-10-23T17:56:38.392Z,99633.22
2022-10-23T17:59:41.022Z,99637.16
2022-10-23T18:02:43.233Z,99637.22
2022-10-23T18:05:45.995Z,99635.53
2022-10-23T18:08:50.329Z,99635.75
2022-10-23T18:11:52.968Z,99629.19
2022-10-23T18:14:56.369Z,99625.22
2022-10-23T18:17:58.783Z,99627.72
2022-10-23T18:21:03.497Z,99623.72
2022-10-23T18:24:06.157Z,99617.19
2022-10-23T18:27:08.624Z,99620.09
2022-10-23T18:30:11.735Z,99620.53
2022-10-23T18:33:15.173Z,99626.59
2022-10-23T18:36:23.610Z,99630.91
2022-10-23T18:39:26.322Z,99631.56
2022-10-23T18:42:28.737Z,99633.50
2022-10-23T18:45:31.641Z,99628.66
2022-10-23T18:48:34.150Z,99626.34
2022-10-23T18:51:37.307Z,99634.63
2022-10-23T18:54:39.689Z,99640.91
2022-10-23T18:57:42.707Z,99628.94
2022-10-23T19:00:45.996Z,99629.03
2022-10-23T19:03:48.972Z,99626.69
2022-10-23T19:06:51.686Z,99631.22
2022-10-23T19:09:55.647Z,99627.97
2022-10-23T19:12:58.087Z,99623.47
2022-10-23T19:16:00.264Z,99619.91
2022-10-23T19:19:11.231Z,99620.09
2022-10-23T19:22:14.908Z,99622.63
2022-10-23T19:25:30.234Z,99631.94
2022-10-23T19:28:37.548Z,99635.06
2022-10-23T19:31:44.751Z,99622.50
2022-10-23T19:34:47.264Z,99626.72
2022-10-23T19:37:50.996Z,99631.34
2022-10-23T19:40:53.439Z,99637.97
2022-10-23T19:43:55.876Z,99634.53
2022-10-23T19:47:05.217Z,99633.69
2022-10-23T19:50:09.700Z,99624.75
2022-10-23T19:53:11.958Z,99623.47
2022-10-23T19:56:14.411Z,99620.34
2022-10-23T19:59:16.958Z,99619.75
2022-10-23T20:02:20.322Z,99619.28
2022-10-23T20:05:23.251Z,99617.50
2022-10-23T20:08:25.709Z,99621.56
2022-10-23T20:11:30.626Z,99622.19
2022-10-23T20:14:33.603Z,99631.72
2022-10-23T20:17:37.144Z,99628.37
2022-10-23T20:20:42.152Z,99635.44
2022-10-23T20:23:44.785Z,99643.78
2022-10-23T20:26:53.159Z,99651.37
2022-10-23T20:29:55.396Z,99647.06
2022-10-23T20:32:57.751Z,99641.25
2022-10-23T20:36:00.479Z,99631.94
2022-10-23T20:39:05.918Z,99623.47
2022-10-23T20:42:08.414Z,99616.94
2022-10-23T20:45:10.916Z,99619.37
2022-10-23T20:48:13.377Z,99610.44
2022-10-23T20:51:18.073Z,99609.94
2022-10-23T20:54:26.836Z,99613.69
2022-10-23T20:57:29.243Z,99603.41
2022-10-23T21:00:31.520Z,99597.13
2022-10-23T21:03:33.898Z,99594.72
2022-10-23T21:06:51.559Z,99592.81
2022-10-23T21:09:58.288Z,99585.84
2022-10-23T21:13:00.439Z,99580.84
2022-10-23T21:16:17.886Z,99582.56
2022-10-23T21:19:20.060Z,99580.34
2022-10-23T21:22:22.191Z,99583.09
2022-10-23T21:25:24.398Z,99582.59
2022-10-23T21:28:27.237Z,99578.16
2022-10-23T21:31:29.470Z,99582.09
2022-10-23T21:34:31.610Z,99574.78
2022-10-23T21:37:33.751Z,99580.09
2022-10-23T21:40:35.845Z,99575.34
2022-10-23T21:43:38.088Z,99573.38
2022-10-23T21:46:41.690Z,99572.47
2022-10-23T21:49:44.114Z,99574.56
2022-10-23T21:52:50.943Z,99578.41
2022-10-23T21:55:53.698Z,99588.28
2022-10-23T21:58:57.206Z,99590.00
2022-10-23T22:01:59.666Z,99589.19
2022-10-23T22:05:01.923Z,99594.75
2022-10-23T22:08:04.207Z,99584.88
2022-10-23T22:11:06.326Z,99574.19
2022-10-23T22:14:08.792Z,99572.59
2022-10-23T22:17:10.931Z,99573.47
2022-10-23T22:20:13.054Z,99578.59
2022-10-23T22:23:15.138Z,99581.34
2022-10-23T22:26:22.402Z,99582.37
2022-10-23T22:29:27.472Z,99574.81
2022-10-23T22:32:29.763Z,99580.28
2022-10-23T22:35:31.882Z,99578.94
2022-10-23T22:38:33.992Z,99588.22
2022-10-23T22:41:36.124Z,99578.12
2022-10-23T22:44:38.285Z,99580.94
2022-10-23T22:47:40.377Z,99573.41
2022-10-23T22:50:42.483Z,99581.97
2022-10-23T22:53:44.903Z,99589.78
2022-10-23T22:56:47.103Z,99588.41
2022-10-23T22:59:49.326Z,99589.00
2022-10-23T23:02:51.488Z,99593.03
2022-10-23T23:05:53.613Z,99588.94
2022-10-23T23:08:56.174Z,99584.47
2022-10-23T23:11:58.492Z,99581.56
2022-10-23T23:15:00.701Z,99575.84
2022-10-23T23:18:02.905Z,99575.59
2022-10-23T23:21:06.216Z,99563.28
2022-10-23T23:24:09.488Z,99564.72
2022-10-23T23:27:11.630Z,99569.44
2022-10-23T23:30:13.845Z,99575.63
2022-10-23T23:33:22.297Z,99574.22
2022-10-23T23:36:26.316Z,99574.81
2022-10-23T23:39:28.746Z,99565.22
2022-10-23T23:42:31.390Z,99565.59
2022-10-23T23:45:33.573Z,99570.84
2022-10-23T23:48:35.851Z,99575.59
2022-10-23T23:51:37.999Z,99560.53
2022-10-23T23:54:40.133Z,99565.78
2022-10-23T23:57:42.625Z,99554.31
